createdAt,value
2023-04-02T00:01:01.582Z,8.60
2023-04-02T00:03:42.157Z,8.60
2023-04-02T00:06:35.084Z,8.70
2023-04-02T00:09:15.790Z,8.50
2023-04-02T00:11:46.422Z,8.30
2023-04-02T00:14:31.808Z,8.30
2023-04-02T00:17:01.182Z,8.30
2023-04-02T00:19:41.269Z,8.30
2023-04-02T00:22:13.684Z,8.40
2023-04-02T00:24:40.405Z,8.50
2023-04-02T00:27:12.030Z,8.50
2023-04-02T00:29:47.055Z,8.40
2023-04-02T00:32:22.075Z,8.40
2023-04-02T00:34:49.318Z,8.40
2023-04-02T00:37:23.809Z,8.50
2023-04-02T00:40:17.345Z,8.60
2023-04-02T00:42:44.692Z,8.70
2023-04-02T00:45:29.089Z,8.70
2023-04-02T00:47:57.864Z,8.80
2023-04-02T00:50:35.788Z,8.70
2023-04-02T00:53:11.555Z,8.70
2023-04-02T00:55:41.587Z,8.60
2023-04-02T00:58:29.978Z,8.50
2023-04-02T01:00:58.446Z,8.60
2023-04-02T01:03:58.008Z,8.60
2023-04-02T01:06:30.613Z,8.60
2023-04-02T01:09:18.348Z,8.30
2023-04-02T01:11:55.838Z,8.40
2023-04-02T01:14:25.314Z,8.40
2023-04-02T01:17:01.186Z,8.50
2023-04-02T01:19:44.895Z,8.30
2023-04-02T01:22:22.790Z,8.30
2023-04-02T01:24:49.832Z,8.20
2023-04-02T01:27:29.961Z,8.20
2023-04-02T01:29:58.938Z,8.20
2023-04-02T01:32:29.186Z,8.20
2023-04-02T01:34:58.244Z,8.30
2023-04-02T01:37:56.135Z,8.40
2023-04-02T01:40:47.229Z,8.50
2023-04-02T01:43:35.798Z,8.30
2023-04-02T01:46:26.023Z,8.30
2023-04-02T01:48:54.502Z,8.40
2023-04-02T01:51:46.001Z,8.50
2023-04-02T01:54:17.941Z,8.50
2023-04-02T01:56:47.118Z,8.50
2023-04-02T01:59:17.358Z,8.50
2023-04-02T02:02:04.420Z,8.50
2023-04-02T02:04:37.633Z,8.50
2023-04-02T02:07:16.282Z,8.50
2023-04-02T02:09:47.827Z,8.50
2023-04-02T02:12:15.665Z,8.50
2023-04-02T02:14:52.439Z,8.40
2023-04-02T02:17:30.911Z,8.50
2023-04-02T02:20:00.497Z,8.60
2023-04-02T02:22:32.058Z,8.60
2023-04-02T02:25:02.585Z,8.60
2023-04-02T02:27:29.991Z,8.60
2023-04-02T02:30:15.484Z,8.60
2023-04-02T02:33:08.660Z,8.50
2023-04-02T02:36:01.842Z,8.50
2023-04-02T02:39:00.982Z,8.60
2023-04-02T02:41:48.646Z,8.70
2023-04-02T02:44:25.772Z,8.80
2023-04-02T02:47:18.530Z,8.70
2023-04-02T02:49:50.504Z,8.60
2023-04-02T02:52:27.664Z,8.50
2023-04-02T02:55:02.364Z,8.30
2023-04-02T02:57:48.153Z,8.50
2023-04-02T03:00:17.835Z,8.60
2023-04-02T03:02:46.254Z,8.60
2023-04-02T03:05:20.515Z,8.50
2023-04-02T03:07:52.206Z,8.50
2023-04-02T03:10:44.209Z,8.50
2023-04-02T03:13:35.228Z,8.50
2023-04-02T03:16:11.776Z,8.50
2023-04-02T03:18:54.236Z,8.50
2023-04-02T03:21:41.311Z,8.50
2023-04-02T03:24:17.616Z,8.50
2023-04-02T03:26:53.895Z,8.60
2023-04-02T03:29:27.857Z,8.50
2023-04-02T03:32:00.673Z,8.50
2023-04-02T03:34:34.419Z,8.60
2023-04-02T03:37:15.648Z,8.60
2023-04-02T03:40:15.200Z,8.70
2023-04-02T03:42:48.595Z,8.60
2023-04-02T03:45:29.487Z,8.60
2023-04-02T03:48:11.640Z,8.60
2023-04-02T03:50:47.349Z,8.70
2023-04-02T03:53:14.159Z,8.70
2023-04-02T03:55:42.588Z,8.70
2023-04-02T03:58:18.963Z,8.80
2023-04-02T04:00:55.645Z,8.80
2023-04-02T04:03:37.016Z,8.70
2023-04-02T04:06:11.623Z,8.70
2023-04-02T04:08:43.067Z,8.80
2023-04-02T04:11:15.347Z,8.70
2023-04-02T04:13:56.413Z,8.70
2023-04-02T04:16:39.509Z,8.70
2023-04-02T04:19:32.574Z,8.70
2023-04-02T04:22:32.585Z,8.70
2023-04-02T04:25:25.365Z,8.60
2023-04-02T04:28:07.999Z,8.50
2023-04-02T04:30:59.981Z,8.50
2023-04-02T04:33:39.949Z,8.60
2023-04-02T04:36:29.661Z,8.60
2023-04-02T04:39:14.402Z,8.80
2023-04-02T04:41:46.531Z,8.80
2023-04-02T04:44:35.661Z,8.80
2023-04-02T04:47:08.288Z,8.90
2023-04-02T04:49:52.342Z,9.00
2023-04-02T04:52:35.365Z,8.80
2023-04-02T04:55:23.389Z,9.00
2023-04-02T04:57:54.435Z,9.00
2023-04-02T05:00:43.759Z,9.00
2023-04-02T05:03:28.534Z,8.90
2023-04-02T05:06:03.496Z,9.10
2023-04-02T05:08:35.536Z,9.10
2023-04-02T05:11:12.879Z,9.10
2023-04-02T05:13:45.616Z,9.00
2023-04-02T05:16:42.387Z,8.90
2023-04-02T05:19:16.778Z,8.90
2023-04-02T05:21:56.003Z,8.80
2023-04-02T05:24:28.725Z,8.80
2023-04-02T05:27:23.227Z,8.90
2023-04-02T05:30:03.496Z,8.90
2023-04-02T05:32:37.663Z,8.90
2023-04-02T05:35:06.580Z,8.90
2023-04-02T05:37:39.137Z,8.90
2023-04-02T05:40:21.354Z,8.90
2023-04-02T05:42:52.873Z,9.10
2023-04-02T05:45:27.411Z,9.10
2023-04-02T05:48:13.367Z,9.00
2023-04-02T05:50:47.246Z,8.80
2023-04-02T05:53:28.863Z,8.90
2023-04-02T05:56:07.939Z,8.80
2023-04-02T05:58:43.978Z,8.80
2023-04-02T06:01:22.596Z,8.90
2023-04-02T06:04:00.884Z,8.90
2023-04-02T06:06:43.596Z,8.90
2023-04-02T06:09:18.007Z,9.00
2023-04-02T06:11:50.252Z,9.00
2023-04-02T06:14:18.704Z,9.10
2023-04-02T06:16:47.087Z,9.00
2023-04-02T06:19:30.364Z,9.00
2023-04-02T06:22:08.768Z,9.00
2023-04-02T06:24:39.496Z,9.10
2023-04-02T06:27:10.077Z,9.20
2023-04-02T06:29:41.184Z,9.30
2023-04-02T06:32:13.088Z,9.30
2023-04-02T06:34:43.287Z,9.40
2023-04-02T06:37:37.470Z,9.40
2023-04-02T06:40:39.703Z,9.20
2023-04-02T06:43:21.042Z,9.30
2023-04-02T06:46:14.614Z,9.30
2023-04-02T06:49:15.078Z,9.20
2023-04-02T06:51:44.596Z,9.30
2023-04-02T06:54:19.004Z,9.30
2023-04-02T06:56:52.331Z,9.30
2023-04-02T06:59:35.029Z,9.30
2023-04-02T07:02:26.235Z,9.30
2023-04-02T07:04:55.917Z,9.30
2023-04-02T07:07:22.656Z,9.30
2023-04-02T07:09:49.694Z,9.40
2023-04-02T07:12:23.630Z,9.40
2023-04-02T07:14:50.750Z,9.40
2023-04-02T07:17:18.838Z,9.40
2023-04-02T07:19:49.129Z,9.40
2023-04-02T07:22:19.453Z,9.40
2023-04-02T07:24:50.447Z,9.40
2023-04-02T07:27:17.213Z,9.50
2023-04-02T07:29:43.886Z,9.40
2023-04-02T07:32:11.997Z,9.50
2023-04-02T07:34:40.777Z,9.40
2023-04-02T07:37:09.712Z,9.30
2023-04-02T07:39:38.309Z,9.40
2023-04-02T07:42:06.392Z,9.50
2023-04-02T07:44:33.021Z,9.60
2023-04-02T07:46:59.928Z,9.50
2023-04-02T07:49:27.054Z,9.60
2023-04-02T07:51:53.723Z,9.80
2023-04-02T07:54:20.439Z,9.90
2023-04-02T07:56:47.164Z,9.90
2023-04-02T07:59:13.896Z,10.00
2023-04-02T08:01:44.227Z,9.90
2023-04-02T08:04:21.281Z,10.10
2023-04-02T08:06:49.105Z,10.00
2023-04-02T08:09:16.913Z,10.20
2023-04-02T08:11:43.701Z,10.30
2023-04-02T08:14:10.868Z,10.30
2023-04-02T08:16:49.962Z,10.40
2023-04-02T08:19:17.228Z,10.30
2023-04-02T08:21:44.616Z,10.20
2023-04-02T08:24:11.301Z,10.20
2023-04-02T08:26:38.350Z,10.30
2023-04-02T08:29:05.331Z,10.20
2023-04-02T08:31:32.186Z,10.20
2023-04-02T08:33:58.860Z,10.20
2023-04-02T08:36:31.056Z,10.30
2023-04-02T08:38:57.947Z,10.00
2023-04-02T08:41:32.228Z,9.90
2023-04-02T08:44:19.768Z,10.10
2023-04-02T08:46:59.422Z,10.10
2023-04-02T08:49:33.058Z,10.10
2023-04-02T08:52:01.369Z,10.20
2023-04-02T08:54:31.537Z,10.30
2023-04-02T08:57:19.675Z,10.30
2023-04-02T08:59:47.831Z,10.30
2023-04-02T09:02:27.969Z,10.50
2023-04-02T09:04:57.178Z,10.50
2023-04-02T09:07:24.378Z,10.50
2023-04-02T09:09:51.519Z,10.50
2023-04-02T09:12:26.972Z,10.50
2023-04-02T09:15:06.085Z,10.60
2023-04-02T09:17:42.602Z,10.40
2023-04-02T09:20:17.897Z,10.70
2023-04-02T09:22:51.006Z,10.40
2023-04-02T09:25:43.423Z,10.40
2023-04-02T09:28:14.710Z,10.40
2023-04-02T09:30:56.550Z,10.40
2023-04-02T09:33:45.479Z,10.50
2023-04-02T09:36:41.087Z,10.40
2023-04-02T09:39:19.832Z,10.40
2023-04-02T09:41:55.710Z,10.40
2023-04-02T09:44:32.158Z,10.50
2023-04-02T09:47:03.573Z,10.50
2023-04-02T09:49:34.121Z,10.60
2023-04-02T09:52:11.528Z,10.80
2023-04-02T09:54:41.424Z,10.90
2023-04-02T09:57:25.099Z,11.00
2023-04-02T10:00:25.415Z,11.10
2023-04-02T10:03:26.616Z,11.20
2023-04-02T10:06:11.364Z,11.10
2023-04-02T10:08:40.700Z,11.10
2023-04-02T10:11:14.020Z,11.00
2023-04-02T10:14:01.725Z,10.80
2023-04-02T10:16:33.123Z,11.00
2023-04-02T10:19:35.418Z,11.10
2023-04-02T10:22:17.838Z,11.30
2023-04-02T10:24:44.559Z,11.40
2023-04-02T10:27:29.539Z,11.60
2023-04-02T10:30:24.284Z,11.50
2023-04-02T10:33:07.098Z,11.60
2023-04-02T10:36:08.578Z,11.50
2023-04-02T10:38:55.985Z,10.80
2023-04-02T10:41:38.622Z,9.80
2023-04-02T10:44:28.570Z,9.20
2023-04-02T10:47:22.345Z,9.00
2023-04-02T10:50:01.172Z,9.00
2023-04-02T10:52:35.939Z,9.20
2023-04-02T10:55:21.312Z,9.20
2023-04-02T10:57:49.235Z,9.30
2023-04-02T11:00:30.815Z,9.30
2023-04-02T11:03:29.926Z,9.30
2023-04-02T11:06:00.472Z,9.20
2023-04-02T11:08:39.676Z,9.10
2023-04-02T11:11:14.783Z,9.10
2023-04-02T11:13:58.583Z,9.20
2023-04-02T11:16:27.765Z,9.30
2023-04-02T11:19:17.030Z,9.10
2023-04-02T11:22:01.352Z,8.90
2023-04-02T11:24:30.601Z,8.80
2023-04-02T11:27:11.142Z,8.80
2023-04-02T11:29:48.914Z,9.00
2023-04-02T11:32:40.628Z,9.10
2023-04-02T11:35:32.714Z,9.20
2023-04-02T11:38:12.463Z,9.20
2023-04-02T11:40:45.015Z,9.40
2023-04-02T11:43:52.024Z,9.40
2023-04-02T11:46:18.906Z,9.50
2023-04-02T11:48:49.072Z,9.40
2023-04-02T11:51:59.262Z,9.50
2023-04-02T11:54:33.992Z,9.30
2023-04-02T11:57:23.828Z,9.30
2023-04-02T12:00:14.370Z,9.30
2023-04-02T12:03:04.292Z,9.00
2023-04-02T12:05:43.081Z,8.70
2023-04-02T12:08:24.451Z,8.70
2023-04-02T12:11:03.868Z,9.10
2023-04-02T12:13:39.468Z,9.00
2023-04-02T12:16:13.282Z,8.80
2023-04-02T12:18:53.980Z,9.00
2023-04-02T12:21:27.230Z,8.90
2023-04-02T12:23:57.883Z,8.90
2023-04-02T12:26:26.764Z,8.80
2023-04-02T12:28:53.454Z,8.80
2023-04-02T12:31:25.307Z,8.90
2023-04-02T12:33:53.125Z,9.00
2023-04-02T12:36:23.084Z,9.10
2023-04-02T12:38:58.166Z,9.00
2023-04-02T12:41:27.249Z,9.00
2023-04-02T12:44:06.561Z,9.00
2023-04-02T12:46:38.916Z,8.90
2023-04-02T12:49:19.415Z,8.90
2023-04-02T12:51:50.413Z,8.80
2023-04-02T12:54:22.152Z,8.70
2023-04-02T12:56:50.630Z,8.70
2023-04-02T12:59:41.493Z,8.80
2023-04-02T13:02:25.337Z,9.00
2023-04-02T13:04:56.340Z,9.00
2023-04-02T13:07:26.383Z,9.00
2023-04-02T13:09:56.292Z,9.10
2023-04-02T13:12:38.762Z,9.20
2023-04-02T13:15:08.958Z,9.10
2023-04-02T13:17:42.304Z,9.30
2023-04-02T13:20:42.884Z,9.40
2023-04-02T13:23:46.083Z,9.50
2023-04-02T13:26:29.258Z,9.30
2023-04-02T13:29:00.832Z,9.10
2023-04-02T13:31:29.847Z,9.10
2023-04-02T13:33:56.722Z,9.30
2023-04-02T13:36:23.708Z,9.40
2023-04-02T13:38:50.600Z,9.30
2023-04-02T13:41:32.551Z,9.30
2023-04-02T13:44:02.372Z,9.00
2023-04-02T13:46:32.747Z,9.10
2023-04-02T13:48:59.501Z,9.10
2023-04-02T13:51:37.642Z,9.00
2023-04-02T13:54:10.636Z,9.00
2023-04-02T13:56:37.397Z,8.90
2023-04-02T13:59:06.067Z,8.90
2023-04-02T14:01:33.043Z,9.00
2023-04-02T14:04:00.488Z,8.90
2023-04-02T14:06:49.356Z,8.90
2023-04-02T14:09:52.964Z,9.10
2023-04-02T14:12:34.853Z,8.90
2023-04-02T14:15:08.019Z,8.90
2023-04-02T14:17:52.884Z,8.80
2023-04-02T14:21:02.731Z,8.80
2023-04-02T14:23:57.047Z,8.80
2023-04-02T14:26:42.487Z,9.10
2023-04-02T14:29:32.521Z,9.20
2023-04-02T14:32:07.777Z,9.00
2023-04-02T14:34:55.167Z,8.80
2023-04-02T14:37:49.505Z,8.50
2023-04-02T14:40:23.701Z,8.30
2023-04-02T14:42:57.159Z,8.30
2023-04-02T14:45:32.378Z,8.30
2023-04-02T14:48:05.116Z,8.40
2023-04-02T14:50:39.058Z,8.40
2023-04-02T14:53:31.214Z,8.40
2023-04-02T14:56:01.413Z,8.20
2023-04-02T14:58:36.972Z,8.20
2023-04-02T15:01:13.889Z,8.20
2023-04-02T15:03:52.569Z,8.50
2023-04-02T15:06:24.594Z,8.30
2023-04-02T15:09:09.513Z,8.30
2023-04-02T15:11:41.537Z,8.30
2023-04-02T15:14:38.997Z,8.00
2023-04-02T15:17:09.905Z,8.10
2023-04-02T15:19:36.548Z,8.10
2023-04-02T15:22:23.004Z,8.10
2023-04-02T15:25:30.182Z,8.20
2023-04-02T15:28:09.666Z,8.20
2023-04-02T15:30:45.066Z,8.00
2023-04-02T15:33:45.924Z,7.90
2023-04-02T15:36:18.660Z,7.90
2023-04-02T15:38:50.956Z,8.10
2023-04-02T15:41:34.599Z,8.30
2023-04-02T15:44:13.485Z,8.30
2023-04-02T15:46:51.984Z,8.30
2023-04-02T15:49:41.168Z,8.40
2023-04-02T15:52:20.328Z,8.50
2023-04-02T15:55:24.514Z,8.30
2023-04-02T15:58:12.971Z,8.20
2023-04-02T16:00:56.947Z,8.10
2023-04-02T16:03:50.833Z,7.90
2023-04-02T16:06:38.225Z,7.60
2023-04-02T16:09:17.525Z,7.40
2023-04-02T16:11:47.428Z,7.10
2023-04-02T16:14:32.156Z,7.10
2023-04-02T16:17:17.678Z,7.40
2023-04-02T16:20:10.272Z,7.40
2023-04-02T16:22:49.772Z,7.30
2023-04-02T16:25:28.171Z,7.30
2023-04-02T16:28:16.638Z,7.30
2023-04-02T16:31:28.132Z,7.40
2023-04-02T16:34:02.314Z,7.20
2023-04-02T16:37:11.954Z,7.20
2023-04-02T16:39:46.580Z,7.30
2023-04-02T16:42:40.186Z,7.30
2023-04-02T16:45:26.183Z,7.20
2023-04-02T16:48:01.975Z,7.20
2023-04-02T16:51:01.302Z,7.00
2023-04-02T16:54:00.375Z,6.80
2023-04-02T16:57:00.538Z,6.90
2023-04-02T16:59:50.247Z,6.90
2023-04-02T17:02:37.287Z,6.90
2023-04-02T17:05:31.350Z,6.70
2023-04-02T17:08:24.579Z,6.40
2023-04-02T17:10:58.294Z,6.30
2023-04-02T17:13:40.693Z,6.20
2023-04-02T17:16:37.050Z,6.20
2023-04-02T17:19:11.131Z,6.30
2023-04-02T17:21:42.100Z,6.20
2023-04-02T17:24:29.776Z,6.10
2023-04-02T17:27:32.354Z,5.90
2023-04-02T17:30:21.961Z,5.60
2023-04-02T17:32:48.685Z,5.60
2023-04-02T17:35:24.895Z,5.80
2023-04-02T17:38:08.546Z,5.90
2023-04-02T17:40:57.837Z,6.00
2023-04-02T17:43:47.959Z,6.00
2023-04-02T17:46:35.674Z,6.00
2023-04-02T17:49:24.201Z,5.90
2023-04-02T17:52:00.337Z,5.90
2023-04-02T17:54:49.775Z,5.80
2023-04-02T17:57:35.349Z,5.60
2023-04-02T18:00:34.302Z,5.50
2023-04-02T18:03:28.672Z,5.50
2023-04-02T18:06:22.141Z,5.40
2023-04-02T18:09:04.296Z,5.30
2023-04-02T18:11:45.063Z,5.20
2023-04-02T18:14:27.041Z,5.30
2023-04-02T18:17:18.516Z,5.20
2023-04-02T18:20:12.021Z,5.10
2023-04-02T18:23:01.420Z,5.20
2023-04-02T18:25:37.075Z,5.30
2023-04-02T18:28:59.583Z,5.30
2023-04-02T18:31:46.443Z,5.20
2023-04-02T18:34:47.277Z,5.30
2023-04-02T18:37:27.875Z,5.40
2023-04-02T18:40:08.418Z,5.60
2023-04-02T18:42:52.541Z,5.50
2023-04-02T18:45:41.587Z,5.50
2023-04-02T18:48:35.274Z,5.50
2023-04-02T18:51:07.012Z,5.50
2023-04-02T18:53:34.920Z,5.40
2023-04-02T18:56:07.364Z,5.10
2023-04-02T18:58:57.030Z,5.00
2023-04-02T19:01:33.906Z,5.00
2023-04-02T19:04:09.098Z,5.10
2023-04-02T19:06:44.805Z,5.20
2023-04-02T19:09:21.839Z,5.30
2023-04-02T19:11:48.989Z,5.40
2023-04-02T19:14:21.325Z,5.40
2023-04-02T19:17:26.424Z,5.20
2023-04-02T19:20:11.455Z,4.90
2023-04-02T19:22:51.819Z,5.00
2023-04-02T19:25:41.813Z,5.30
2023-04-02T19:28:13.182Z,5.20
2023-04-02T19:31:00.692Z,4.80
2023-04-02T19:33:37.495Z,4.80
2023-04-02T19:36:51.321Z,4.90
2023-04-02T19:39:33.321Z,5.00
2023-04-02T19:42:39.541Z,4.90
2023-04-02T19:45:22.923Z,4.90
2023-04-02T19:47:50.368Z,5.00
2023-04-02T19:50:18.723Z,5.00
2023-04-02T19:52:49.353Z,5.20
2023-04-02T19:55:20.963Z,5.20
2023-04-02T19:57:47.811Z,5.10
2023-04-02T20:00:15.994Z,5.10
2023-04-02T20:02:43.046Z,5.20
2023-04-02T20:05:10.094Z,5.30
2023-04-02T20:07:37.611Z,5.20
2023-04-02T20:10:08.085Z,5.10
2023-04-02T20:12:41.097Z,4.90
2023-04-02T20:15:11.463Z,4.70
2023-04-02T20:17:38.143Z,4.80
2023-04-02T20:20:05.761Z,4.90
2023-04-02T20:22:33.018Z,4.90
2023-04-02T20:24:59.739Z,5.00
2023-04-02T20:27:26.384Z,5.00
2023-04-02T20:29:53.134Z,4.90
2023-04-02T20:32:19.900Z,4.90
2023-04-02T20:34:46.958Z,5.10
2023-04-02T20:37:13.696Z,5.20
2023-04-02T20:39:40.439Z,5.30
2023-04-02T20:42:07.195Z,5.20
2023-04-02T20:44:34.283Z,5.10
2023-04-02T20:47:02.372Z,5.10
2023-04-02T20:49:29.106Z,5.30
2023-04-02T20:51:56.178Z,5.40
2023-04-02T20:54:22.813Z,5.10
2023-04-02T20:56:50.606Z,5.10
2023-04-02T20:59:20.099Z,4.80
2023-04-02T21:01:46.941Z,4.80
2023-04-02T21:04:14.125Z,4.90
2023-04-02T21:06:41.740Z,5.00
2023-04-02T21:09:14.515Z,5.10
2023-04-02T21:11:41.820Z,5.30
2023-04-02T21:14:08.788Z,5.30
2023-04-02T21:16:36.252Z,5.20
2023-04-02T21:19:06.181Z,5.20
2023-04-02T21:21:33.238Z,5.10
2023-04-02T21:24:02.490Z,5.00
2023-04-02T21:26:33.279Z,4.90
2023-04-02T21:29:01.493Z,5.00
2023-04-02T21:31:30.471Z,5.00
2023-04-02T21:33:59.278Z,5.10
2023-04-02T21:36:31.463Z,5.10
2023-04-02T21:39:04.133Z,5.00
2023-04-02T21:41:33.508Z,5.00
2023-04-02T21:44:05.323Z,4.90
2023-04-02T21:46:35.175Z,4.90
2023-04-02T21:49:02.721Z,4.80
2023-04-02T21:51:33.276Z,4.90
2023-04-02T21:54:00.736Z,5.00
2023-04-02T21:56:30.117Z,5.00
2023-04-02T21:58:58.729Z,4.80
2023-04-02T22:01:31.728Z,4.60
2023-04-02T22:04:01.379Z,4.60
2023-04-02T22:06:30.844Z,4.40
2023-04-02T22:08:59.558Z,4.50
2023-04-02T22:11:31.586Z,4.50
2023-04-02T22:14:01.810Z,4.40
2023-04-02T22:16:32.822Z,4.40
2023-04-02T22:19:03.104Z,4.50
2023-04-02T22:21:31.005Z,4.50
2023-04-02T22:24:02.088Z,4.40
2023-04-02T22:26:29.643Z,4.50
2023-04-02T22:28:59.631Z,4.80
2023-04-02T22:31:30.401Z,4.80
2023-04-02T22:33:58.208Z,4.80
2023-04-02T22:36:27.026Z,4.70
2023-04-02T22:38:54.010Z,4.80
2023-04-02T22:41:25.531Z,4.70
2023-04-02T22:43:52.610Z,4.70
2023-04-02T22:46:20.199Z,4.70
2023-04-02T22:48:48.815Z,4.90
2023-04-02T22:51:17.738Z,4.90
2023-04-02T22:53:45.460Z,4.90
2023-04-02T22:56:14.724Z,4.70
2023-04-02T22:58:41.630Z,4.80
2023-04-02T23:01:12.164Z,4.70
2023-04-02T23:03:38.948Z,4.80
2023-04-02T23:06:08.727Z,4.90
2023-04-02T23:08:38.152Z,4.90
2023-04-02T23:11:18.815Z,5.00
2023-04-02T23:13:48.340Z,5.00
2023-04-02T23:16:16.099Z,4.90
2023-04-02T23:18:46.077Z,5.00
2023-04-02T23:21:12.932Z,5.00
2023-04-02T23:23:40.018Z,5.00
2023-04-02T23:26:11.154Z,5.20
2023-04-02T23:28:39.242Z,5.00
2023-04-02T23:31:07.994Z,4.90
2023-04-02T23:33:35.364Z,5.00
2023-04-02T23:36:11.232Z,4.90
2023-04-02T23:38:37.983Z,4.80
2023-04-02T23:41:04.685Z,4.80
2023-04-02T23:43:31.424Z,4.70
2023-04-02T23:45:58.594Z,4.70
2023-04-02T23:48:25.364Z,4.70
2023-04-02T23:50:52.002Z,4.90
2023-04-02T23:53:18.846Z,4.90
2023-04-02T23:55:45.856Z,5.00
2023-04-02T23:58:12.555Z,4.90
